sensor_id;sensor_type;location;lat;lon;timestamp;P1;durP1;ratioP1;P2;durP2;ratioP2
13122;SDS011;6627;50.920;12.050;2024-01-25T00:01:08;16.20;;;3.93;;
13122;SDS011;6627;50.920;12.050;2024-01-25T00:03:37;22.97;;;4.03;;
13122;SDS011;6627;50.920;12.050;2024-01-25T00:06:05;15.47;;;4.10;;
13122;SDS011;6627;50.920;12.050;2024-01-25T00:08:34;9.80;;;3.33;;
13122;SDS011;6627;50.920;12.050;2024-01-25T00:11:02;13.13;;;3.67;;
13122;SDS011;6627;50.920;12.050;2024-01-25T00:13:31;12.90;;;3.60;;
13122;SDS011;6627;50.920;12.050;2024-01-25T00:15:59;16.23;;;4.00;;
13122;SDS011;6627;50.920;12.050;2024-01-25T00:18:27;11.83;;;3.50;;
13122;SDS011;6627;50.920;12.050;2024-01-25T00:20:57;12.93;;;3.60;;
13122;SDS011;6627;50.920;12.050;2024-01-25T00:23:25;10.20;;;3.60;;
13122;SDS011;6627;50.920;12.050;2024-01-25T00:25:53;16.03;;;3.73;;
13122;SDS011;6627;50.920;12.050;2024-01-25T00:28:24;18.33;;;3.73;;
13122;SDS011;6627;50.920;12.050;2024-01-25T00:30:51;15.37;;;3.43;;
13122;SDS011;6627;50.920;12.050;2024-01-25T00:33:19;13.50;;;3.53;;
13122;SDS011;6627;50.920;12.050;2024-01-25T00:35:48;9.90;;;3.17;;
13122;SDS011;6627;50.920;12.050;2024-01-25T00:38:18;10.07;;;3.57;;
13122;SDS011;6627;50.920;12.050;2024-01-25T00:40:47;13.77;;;3.57;;
13122;SDS011;6627;50.920;12.050;2024-01-25T00:43:15;15.50;;;3.57;;
13122;SDS011;6627;50.920;12.050;2024-01-25T00:45:43;14.37;;;3.33;;
13122;SDS011;6627;50.920;12.050;2024-01-25T00:48:13;13.57;;;3.67;;
13122;SDS011;6627;50.920;12.050;2024-01-25T00:50:41;13.47;;;4.00;;
13122;SDS011;6627;50.920;12.050;2024-01-25T00:53:09;16.73;;;3.50;;
13122;SDS011;6627;50.920;12.050;2024-01-25T00:55:38;15.17;;;3.83;;
13122;SDS011;6627;50.920;12.050;2024-01-25T00:58:07;14.63;;;3.43;;
13122;SDS011;6627;50.920;12.050;2024-01-25T01:00:36;16.03;;;3.50;;
13122;SDS011;6627;50.920;12.050;2024-01-25T01:03:04;13.90;;;3.20;;
13122;SDS011;6627;50.920;12.050;2024-01-25T01:05:34;14.73;;;3.70;;
13122;SDS011;6627;50.920;12.050;2024-01-25T01:08:02;13.07;;;3.47;;
13122;SDS011;6627;50.920;12.050;2024-01-25T01:10:30;15.60;;;3.20;;
13122;SDS011;6627;50.920;12.050;2024-01-25T01:12:59;20.90;;;3.50;;
13122;SDS011;6627;50.920;12.050;2024-01-25T01:15:27;15.33;;;4.07;;
13122;SDS011;6627;50.920;12.050;2024-01-25T01:17:54;14.70;;;4.10;;
13122;SDS011;6627;50.920;12.050;2024-01-25T01:20:22;14.50;;;3.37;;
13122;SDS011;6627;50.920;12.050;2024-01-25T01:22:51;18.17;;;3.83;;
13122;SDS011;6627;50.920;12.050;2024-01-25T01:25:19;16.07;;;3.60;;
13122;SDS011;6627;50.920;12.050;2024-01-25T01:27:47;16.20;;;3.97;;
13122;SDS011;6627;50.920;12.050;2024-01-25T01:30:18;16.40;;;4.67;;
13122;SDS011;6627;50.920;12.050;2024-01-25T01:32:46;11.20;;;3.03;;
13122;SDS011;6627;50.920;12.050;2024-01-25T01:35:14;12.50;;;3.53;;
13122;SDS011;6627;50.920;12.050;2024-01-25T01:37:43;15.13;;;3.57;;
13122;SDS011;6627;50.920;12.050;2024-01-25T01:40:11;17.33;;;3.10;;
13122;SDS011;6627;50.920;12.050;2024-01-25T01:42:44;15.73;;;4.37;;
13122;SDS011;6627;50.920;12.050;2024-01-25T01:45:12;18.57;;;4.30;;
13122;SDS011;6627;50.920;12.050;2024-01-25T01:47:41;20.10;;;4.03;;
13122;SDS011;6627;50.920;12.050;2024-01-25T01:50:09;17.73;;;3.80;;
13122;SDS011;6627;50.920;12.050;2024-01-25T01:52:37;16.60;;;3.50;;
13122;SDS011;6627;50.920;12.050;2024-01-25T01:55:06;11.33;;;3.43;;
13122;SDS011;6627;50.920;12.050;2024-01-25T01:57:33;19.83;;;4.23;;
13122;SDS011;6627;50.920;12.050;2024-01-25T02:00:02;9.30;;;3.03;;
13122;SDS011;6627;50.920;12.050;2024-01-25T02:02:36;19.40;;;4.33;;
13122;SDS011;6627;50.920;12.050;2024-01-25T02:05:05;12.97;;;3.67;;
13122;SDS011;6627;50.920;12.050;2024-01-25T02:07:33;15.30;;;3.97;;
13122;SDS011;6627;50.920;12.050;2024-01-25T02:10:02;14.73;;;3.50;;
13122;SDS011;6627;50.920;12.050;2024-01-25T02:12:30;13.60;;;4.00;;
13122;SDS011;6627;50.920;12.050;2024-01-25T02:14:58;13.40;;;4.07;;
13122;SDS011;6627;50.920;12.050;2024-01-25T02:17:27;18.60;;;4.43;;
13122;SDS011;6627;50.920;12.050;2024-01-25T02:19:55;16.57;;;4.33;;
13122;SDS011;6627;50.920;12.050;2024-01-25T02:22:24;12.17;;;3.33;;
13122;SDS011;6627;50.920;12.050;2024-01-25T02:24:51;21.80;;;4.73;;
13122;SDS011;6627;50.920;12.050;2024-01-25T02:27:20;21.50;;;4.57;;
13122;SDS011;6627;50.920;12.050;2024-01-25T02:29:47;12.57;;;4.03;;
13122;SDS011;6627;50.920;12.050;2024-01-25T02:32:15;15.50;;;3.83;;
13122;SDS011;6627;50.920;12.050;2024-01-25T02:34:43;13.33;;;3.83;;
13122;SDS011;6627;50.920;12.050;2024-01-25T02:37:11;17.20;;;4.60;;
13122;SDS011;6627;50.920;12.050;2024-01-25T02:39:42;14.80;;;3.80;;
13122;SDS011;6627;50.920;12.050;2024-01-25T02:42:10;19.23;;;4.23;;
13122;SDS011;6627;50.920;12.050;2024-01-25T02:44:39;18.23;;;4.40;;
13122;SDS011;6627;50.920;12.050;2024-01-25T02:47:06;20.47;;;4.20;;
13122;SDS011;6627;50.920;12.050;2024-01-25T02:49:35;19.20;;;4.37;;
13122;SDS011;6627;50.920;12.050;2024-01-25T02:52:02;16.00;;;4.93;;
13122;SDS011;6627;50.920;12.050;2024-01-25T02:54:34;17.13;;;3.73;;
13122;SDS011;6627;50.920;12.050;2024-01-25T02:57:04;18.50;;;4.80;;
13122;SDS011;6627;50.920;12.050;2024-01-25T02:59:33;19.73;;;4.33;;
13122;SDS011;6627;50.920;12.050;2024-01-25T03:02:01;17.70;;;4.47;;
13122;SDS011;6627;50.920;12.050;2024-01-25T03:04:29;25.53;;;4.77;;
13122;SDS011;6627;50.920;12.050;2024-01-25T03:06:56;20.63;;;4.40;;
13122;SDS011;6627;50.920;12.050;2024-01-25T03:09:25;14.40;;;4.43;;
13122;SDS011;6627;50.920;12.050;2024-01-25T03:11:54;17.93;;;4.40;;
13122;SDS011;6627;50.920;12.050;2024-01-25T03:14:24;20.20;;;4.37;;
13122;SDS011;6627;50.920;12.050;2024-01-25T03:16:52;21.27;;;4.77;;
13122;SDS011;6627;50.920;12.050;2024-01-25T03:19:22;14.50;;;4.03;;
13122;SDS011;6627;50.920;12.050;2024-01-25T03:21:53;17.80;;;4.50;;
13122;SDS011;6627;50.920;12.050;2024-01-25T03:24:21;15.30;;;4.53;;
13122;SDS011;6627;50.920;12.050;2024-01-25T03:26:48;14.90;;;3.53;;
13122;SDS011;6627;50.920;12.050;2024-01-25T03:29:16;18.87;;;4.77;;
13122;SDS011;6627;50.920;12.050;2024-01-25T03:31:46;20.47;;;4.30;;
13122;SDS011;6627;50.920;12.050;2024-01-25T03:34:14;16.93;;;4.07;;
13122;SDS011;6627;50.920;12.050;2024-01-25T03:36:42;17.30;;;4.10;;
13122;SDS011;6627;50.920;12.050;2024-01-25T03:39:09;20.00;;;4.23;;
13122;SDS011;6627;50.920;12.050;2024-01-25T03:41:37;16.73;;;4.50;;
13122;SDS011;6627;50.920;12.050;2024-01-25T03:44:05;18.50;;;4.57;;
13122;SDS011;6627;50.920;12.050;2024-01-25T03:46:32;24.23;;;4.37;;
13122;SDS011;6627;50.920;12.050;2024-01-25T03:49:01;22.53;;;5.30;;
13122;SDS011;6627;50.920;12.050;2024-01-25T03:51:29;19.37;;;4.83;;
13122;SDS011;6627;50.920;12.050;2024-01-25T03:53:57;15.53;;;3.23;;
13122;SDS011;6627;50.920;12.050;2024-01-25T03:56:25;20.70;;;4.90;;
13122;SDS011;6627;50.920;12.050;2024-01-25T03:58:53;17.43;;;4.47;;
13122;SDS011;6627;50.920;12.050;2024-01-25T04:01:21;15.33;;;4.60;;
13122;SDS011;6627;50.920;12.050;2024-01-25T04:03:49;17.97;;;4.63;;
13122;SDS011;6627;50.920;12.050;2024-01-25T04:06:19;20.73;;;5.30;;
13122;SDS011;6627;50.920;12.050;2024-01-25T04:08:46;17.00;;;4.47;;
13122;SDS011;6627;50.920;12.050;2024-01-25T04:11:15;14.87;;;4.63;;
13122;SDS011;6627;50.920;12.050;2024-01-25T04:13:42;17.63;;;4.27;;
13122;SDS011;6627;50.920;12.050;2024-01-25T04:16:13;16.53;;;4.47;;
13122;SDS011;6627;50.920;12.050;2024-01-25T04:18:41;14.03;;;4.23;;
13122;SDS011;6627;50.920;12.050;2024-01-25T04:21:09;22.00;;;4.20;;
13122;SDS011;6627;50.920;12.050;2024-01-25T04:23:38;20.53;;;5.07;;
13122;SDS011;6627;50.920;12.050;2024-01-25T04:26:06;21.67;;;4.63;;
13122;SDS011;6627;50.920;12.050;2024-01-25T04:28:34;13.67;;;3.77;;
13122;SDS011;6627;50.920;12.050;2024-01-25T04:31:02;18.53;;;4.80;;
13122;SDS011;6627;50.920;12.050;2024-01-25T04:33:30;21.17;;;4.97;;
13122;SDS011;6627;50.920;12.050;2024-01-25T04:35:57;16.77;;;4.07;;
13122;SDS011;6627;50.920;12.050;2024-01-25T04:38:26;16.40;;;4.90;;
13122;SDS011;6627;50.920;12.050;2024-01-25T04:40:55;20.00;;;4.13;;
13122;SDS011;6627;50.920;12.050;2024-01-25T04:43:22;16.87;;;3.63;;
13122;SDS011;6627;50.920;12.050;2024-01-25T04:45:50;23.57;;;5.07;;
13122;SDS011;6627;50.920;12.050;2024-01-25T04:48:18;19.10;;;4.50;;
13122;SDS011;6627;50.920;12.050;2024-01-25T04:50:46;19.90;;;5.20;;
13122;SDS011;6627;50.920;12.050;2024-01-25T04:53:14;22.30;;;4.30;;
13122;SDS011;6627;50.920;12.050;2024-01-25T04:55:41;22.10;;;4.47;;
13122;SDS011;6627;50.920;12.050;2024-01-25T04:58:10;11.40;;;3.07;;
13122;SDS011;6627;50.920;12.050;2024-01-25T05:00:38;19.47;;;5.30;;
13122;SDS011;6627;50.920;12.050;2024-01-25T05:03:05;20.27;;;4.30;;
13122;SDS011;6627;50.920;12.050;2024-01-25T05:05:34;17.10;;;3.80;;
13122;SDS011;6627;50.920;12.050;2024-01-25T05:08:01;14.67;;;3.90;;
13122;SDS011;6627;50.920;12.050;2024-01-25T05:10:28;22.10;;;4.30;;
13122;SDS011;6627;50.920;12.050;2024-01-25T05:12:57;20.50;;;3.97;;
13122;SDS011;6627;50.920;12.050;2024-01-25T05:15:26;19.33;;;4.60;;
13122;SDS011;6627;50.920;12.050;2024-01-25T05:17:56;15.27;;;3.70;;
13122;SDS011;6627;50.920;12.050;2024-01-25T05:20:24;19.30;;;4.23;;
13122;SDS011;6627;50.920;12.050;2024-01-25T05:22:59;18.57;;;4.17;;
13122;SDS011;6627;50.920;12.050;2024-01-25T05:25:29;16.33;;;4.20;;
13122;SDS011;6627;50.920;12.050;2024-01-25T05:27:57;19.47;;;4.13;;
13122;SDS011;6627;50.920;12.050;2024-01-25T05:30:27;13.33;;;3.53;;
13122;SDS011;6627;50.920;12.050;2024-01-25T05:32:56;15.50;;;3.77;;
13122;SDS011;6627;50.920;12.050;2024-01-25T05:35:25;20.83;;;3.70;;
13122;SDS011;6627;50.920;12.050;2024-01-25T05:37:52;18.20;;;4.10;;
13122;SDS011;6627;50.920;12.050;2024-01-25T05:40:20;12.43;;;3.50;;
13122;SDS011;6627;50.920;12.050;2024-01-25T05:42:48;14.97;;;2.97;;
13122;SDS011;6627;50.920;12.050;2024-01-25T05:45:16;11.70;;;2.93;;
13122;SDS011;6627;50.920;12.050;2024-01-25T05:47:48;17.57;;;4.03;;
13122;SDS011;6627;50.920;12.050;2024-01-25T05:50:17;8.13;;;2.20;;
13122;SDS011;6627;50.920;12.050;2024-01-25T05:52:45;17.03;;;3.97;;
13122;SDS011;6627;50.920;12.050;2024-01-25T05:55:13;10.10;;;2.60;;
13122;SDS011;6627;50.920;12.050;2024-01-25T05:57:42;8.90;;;2.07;;
13122;SDS011;6627;50.920;12.050;2024-01-25T06:00:11;11.20;;;3.00;;
13122;SDS011;6627;50.920;12.050;2024-01-25T06:02:41;13.17;;;3.43;;
13122;SDS011;6627;50.920;12.050;2024-01-25T06:05:11;17.27;;;3.60;;
13122;SDS011;6627;50.920;12.050;2024-01-25T06:07:39;14.30;;;3.23;;
13122;SDS011;6627;50.920;12.050;2024-01-25T06:10:07;11.37;;;2.17;;
13122;SDS011;6627;50.920;12.050;2024-01-25T06:12:37;14.93;;;3.17;;
13122;SDS011;6627;50.920;12.050;2024-01-25T06:15:05;18.87;;;3.53;;
13122;SDS011;6627;50.920;12.050;2024-01-25T06:17:34;15.07;;;3.40;;
13122;SDS011;6627;50.920;12.050;2024-01-25T06:20:01;14.47;;;2.93;;
13122;SDS011;6627;50.920;12.050;2024-01-25T06:22:32;14.50;;;3.17;;
13122;SDS011;6627;50.920;12.050;2024-01-25T06:24:59;14.13;;;3.13;;
13122;SDS011;6627;50.920;12.050;2024-01-25T06:27:26;13.53;;;3.10;;
13122;SDS011;6627;50.920;12.050;2024-01-25T06:29:55;11.47;;;3.33;;
13122;SDS011;6627;50.920;12.050;2024-01-25T06:32:26;9.90;;;2.17;;
13122;SDS011;6627;50.920;12.050;2024-01-25T06:34:53;20.50;;;3.67;;
13122;SDS011;6627;50.920;12.050;2024-01-25T06:37:20;8.63;;;2.70;;
13122;SDS011;6627;50.920;12.050;2024-01-25T06:39:50;14.57;;;3.50;;
13122;SDS011;6627;50.920;12.050;2024-01-25T06:42:17;18.20;;;3.50;;
13122;SDS011;6627;50.920;12.050;2024-01-25T06:44:45;13.73;;;3.23;;
13122;SDS011;6627;50.920;12.050;2024-01-25T06:47:13;8.00;;;2.40;;
13122;SDS011;6627;50.920;12.050;2024-01-25T06:49:41;14.50;;;3.17;;
13122;SDS011;6627;50.920;12.050;2024-01-25T06:52:09;9.83;;;2.77;;
13122;SDS011;6627;50.920;12.050;2024-01-25T06:54:38;10.73;;;2.33;;
13122;SDS011;6627;50.920;12.050;2024-01-25T06:57:07;14.93;;;3.00;;
13122;SDS011;6627;50.920;12.050;2024-01-25T06:59:34;10.80;;;3.00;;
13122;SDS011;6627;50.920;12.050;2024-01-25T07:02:02;12.13;;;2.90;;
13122;SDS011;6627;50.920;12.050;2024-01-25T07:04:29;8.97;;;2.10;;
13122;SDS011;6627;50.920;12.050;2024-01-25T07:06:57;15.77;;;3.37;;
13122;SDS011;6627;50.920;12.050;2024-01-25T07:09:26;11.17;;;3.37;;
13122;SDS011;6627;50.920;12.050;2024-01-25T07:11:53;10.63;;;2.33;;
13122;SDS011;6627;50.920;12.050;2024-01-25T07:14:24;12.53;;;3.00;;
13122;SDS011;6627;50.920;12.050;2024-01-25T07:16:51;10.37;;;2.67;;
13122;SDS011;6627;50.920;12.050;2024-01-25T07:19:19;14.67;;;3.03;;
13122;SDS011;6627;50.920;12.050;2024-01-25T07:21:46;10.50;;;2.27;;
13122;SDS011;6627;50.920;12.050;2024-01-25T07:24:13;6.03;;;1.97;;
13122;SDS011;6627;50.920;12.050;2024-01-25T07:26:41;10.10;;;2.33;;
13122;SDS011;6627;50.920;12.050;2024-01-25T07:29:09;11.13;;;3.03;;
13122;SDS011;6627;50.920;12.050;2024-01-25T07:31:38;13.13;;;3.27;;
13122;SDS011;6627;50.920;12.050;2024-01-25T07:34:06;8.53;;;2.77;;
13122;SDS011;6627;50.920;12.050;2024-01-25T07:36:34;14.93;;;2.50;;
13122;SDS011;6627;50.920;12.050;2024-01-25T07:39:01;13.63;;;3.00;;
13122;SDS011;6627;50.920;12.050;2024-01-25T07:41:29;11.27;;;2.67;;
13122;SDS011;6627;50.920;12.050;2024-01-25T07:43:57;13.93;;;2.80;;
13122;SDS011;6627;50.920;12.050;2024-01-25T07:46:24;12.53;;;2.80;;
13122;SDS011;6627;50.920;12.050;2024-01-25T07:48:53;9.40;;;2.07;;
13122;SDS011;6627;50.920;12.050;2024-01-25T07:51:20;12.83;;;2.80;;
13122;SDS011;6627;50.920;12.050;2024-01-25T07:53:48;14.23;;;2.83;;
13122;SDS011;6627;50.920;12.050;2024-01-25T07:56:16;11.77;;;2.63;;
13122;SDS011;6627;50.920;12.050;2024-01-25T07:58:44;19.37;;;2.97;;
13122;SDS011;6627;50.920;12.050;2024-01-25T08:01:16;12.87;;;2.60;;
13122;SDS011;6627;50.920;12.050;2024-01-25T08:03:45;14.13;;;2.97;;
13122;SDS011;6627;50.920;12.050;2024-01-25T08:06:14;5.93;;;2.00;;
13122;SDS011;6627;50.920;12.050;2024-01-25T08:08:42;7.80;;;2.47;;
13122;SDS011;6627;50.920;12.050;2024-01-25T08:11:09;15.97;;;2.80;;
13122;SDS011;6627;50.920;12.050;2024-01-25T08:13:37;11.17;;;2.23;;
13122;SDS011;6627;50.920;12.050;2024-01-25T08:16:08;11.97;;;2.97;;
13122;SDS011;6627;50.920;12.050;2024-01-25T08:18:36;11.93;;;2.60;;
13122;SDS011;6627;50.920;12.050;2024-01-25T08:21:04;12.77;;;3.10;;
13122;SDS011;6627;50.920;12.050;2024-01-25T08:23:32;15.03;;;3.50;;
13122;SDS011;6627;50.920;12.050;2024-01-25T08:26:00;5.90;;;1.83;;
13122;SDS011;6627;50.920;12.050;2024-01-25T08:28:29;8.53;;;1.90;;
13122;SDS011;6627;50.920;12.050;2024-01-25T08:30:57;7.83;;;2.00;;
13122;SDS011;6627;50.920;12.050;2024-01-25T08:33:25;12.63;;;2.80;;
13122;SDS011;6627;50.920;12.050;2024-01-25T08:35:53;12.33;;;2.97;;
13122;SDS011;6627;50.920;12.050;2024-01-25T08:38:21;14.97;;;3.60;;
13122;SDS011;6627;50.920;12.050;2024-01-25T08:40:50;9.47;;;2.90;;
13122;SDS011;6627;50.920;12.050;2024-01-25T08:43:18;13.43;;;2.47;;
13122;SDS011;6627;50.920;12.050;2024-01-25T08:45:46;12.20;;;2.53;;
13122;SDS011;6627;50.920;12.050;2024-01-25T08:48:14;7.47;;;2.30;;
13122;SDS011;6627;50.920;12.050;2024-01-25T08:50:42;14.07;;;2.60;;
13122;SDS011;6627;50.920;12.050;2024-01-25T08:53:10;9.03;;;2.60;;
13122;SDS011;6627;50.920;12.050;2024-01-25T08:55:39;7.50;;;2.10;;
13122;SDS011;6627;50.920;12.050;2024-01-25T08:58:09;11.97;;;2.57;;
13122;SDS011;6627;50.920;12.050;2024-01-25T09:00:38;9.23;;;2.37;;
13122;SDS011;6627;50.920;12.050;2024-01-25T09:03:05;10.27;;;2.80;;
13122;SDS011;6627;50.920;12.050;2024-01-25T09:05:32;13.00;;;3.13;;
13122;SDS011;6627;50.920;12.050;2024-01-25T09:08:05;10.23;;;2.47;;
13122;SDS011;6627;50.920;12.050;2024-01-25T09:10:34;13.40;;;2.60;;
13122;SDS011;6627;50.920;12.050;2024-01-25T09:13:01;9.30;;;2.20;;
13122;SDS011;6627;50.920;12.050;2024-01-25T09:15:30;12.43;;;3.03;;
13122;SDS011;6627;50.920;12.050;2024-01-25T09:17:58;9.67;;;2.10;;
13122;SDS011;6627;50.920;12.050;2024-01-25T09:20:26;10.70;;;2.40;;
13122;SDS011;6627;50.920;12.050;2024-01-25T09:22:53;6.70;;;2.20;;
13122;SDS011;6627;50.920;12.050;2024-01-25T09:25:20;10.07;;;2.57;;
13122;SDS011;6627;50.920;12.050;2024-01-25T09:27:48;16.40;;;3.63;;
13122;SDS011;6627;50.920;12.050;2024-01-25T09:30:16;13.43;;;2.70;;
13122;SDS011;6627;50.920;12.050;2024-01-25T09:32:45;9.50;;;2.13;;
13122;SDS011;6627;50.920;12.050;2024-01-25T09:35:12;10.73;;;1.97;;
13122;SDS011;6627;50.920;12.050;2024-01-25T09:37:40;8.87;;;2.83;;
13122;SDS011;6627;50.920;12.050;2024-01-25T09:40:08;9.37;;;2.07;;
13122;SDS011;6627;50.920;12.050;2024-01-25T09:42:38;11.77;;;2.63;;
13122;SDS011;6627;50.920;12.050;2024-01-25T09:45:06;16.60;;;2.57;;
13122;SDS011;6627;50.920;12.050;2024-01-25T09:47:36;9.00;;;2.30;;
13122;SDS011;6627;50.920;12.050;2024-01-25T09:50:06;8.00;;;1.93;;
13122;SDS011;6627;50.920;12.050;2024-01-25T09:52:36;8.50;;;2.47;;
13122;SDS011;6627;50.920;12.050;2024-01-25T09:55:06;10.57;;;2.10;;
13122;SDS011;6627;50.920;12.050;2024-01-25T09:57:35;14.17;;;2.53;;
13122;SDS011;6627;50.920;12.050;2024-01-25T10:00:04;9.20;;;2.20;;
13122;SDS011;6627;50.920;12.050;2024-01-25T10:02:37;10.87;;;2.37;;
13122;SDS011;6627;50.920;12.050;2024-01-25T10:05:07;10.07;;;2.70;;
13122;SDS011;6627;50.920;12.050;2024-01-25T10:07:34;6.43;;;2.33;;
13122;SDS011;6627;50.920;12.050;2024-01-25T10:10:04;6.73;;;1.77;;
13122;SDS011;6627;50.920;12.050;2024-01-25T10:12:32;11.83;;;2.80;;
13122;SDS011;6627;50.920;12.050;2024-01-25T10:15:00;7.87;;;2.20;;
13122;SDS011;6627;50.920;12.050;2024-01-25T10:17:30;6.13;;;2.43;;
13122;SDS011;6627;50.920;12.050;2024-01-25T10:19:57;7.27;;;2.23;;
13122;SDS011;6627;50.920;12.050;2024-01-25T10:22:26;11.03;;;2.67;;
13122;SDS011;6627;50.920;12.050;2024-01-25T10:24:56;8.53;;;2.60;;
13122;SDS011;6627;50.920;12.050;2024-01-25T10:27:23;11.53;;;2.17;;
13122;SDS011;6627;50.920;12.050;2024-01-25T10:29:51;8.10;;;2.27;;
13122;SDS011;6627;50.920;12.050;2024-01-25T10:32:18;8.30;;;1.73;;
13122;SDS011;6627;50.920;12.050;2024-01-25T10:34:46;10.40;;;2.50;;
13122;SDS011;6627;50.920;12.050;2024-01-25T10:37:18;7.40;;;2.40;;
13122;SDS011;6627;50.920;12.050;2024-01-25T10:39:48;9.43;;;2.07;;
13122;SDS011;6627;50.920;12.050;2024-01-25T10:42:17;10.70;;;2.40;;
13122;SDS011;6627;50.920;12.050;2024-01-25T10:44:44;9.93;;;2.70;;
13122;SDS011;6627;50.920;12.050;2024-01-25T10:47:11;9.30;;;2.20;;
13122;SDS011;6627;50.920;12.050;2024-01-25T10:49:39;6.83;;;2.13;;
13122;SDS011;6627;50.920;12.050;2024-01-25T10:52:08;6.13;;;1.67;;
13122;SDS011;6627;50.920;12.050;2024-01-25T10:54:36;8.20;;;2.17;;
13122;SDS011;6627;50.920;12.050;2024-01-25T10:57:05;10.67;;;2.03;;
13122;SDS011;6627;50.920;12.050;2024-01-25T10:59:35;11.60;;;2.23;;
13122;SDS011;6627;50.920;12.050;2024-01-25T11:02:02;7.33;;;2.47;;
13122;SDS011;6627;50.920;12.050;2024-01-25T11:04:31;9.70;;;2.27;;
13122;SDS011;6627;50.920;12.050;2024-01-25T11:07:04;9.27;;;2.47;;
13122;SDS011;6627;50.920;12.050;2024-01-25T11:09:34;6.50;;;1.90;;
13122;SDS011;6627;50.920;12.050;2024-01-25T11:12:10;8.30;;;2.67;;
13122;SDS011;6627;50.920;12.050;2024-01-25T11:14:39;11.67;;;1.97;;
13122;SDS011;6627;50.920;12.050;2024-01-25T11:17:18;6.13;;;1.83;;
13122;SDS011;6627;50.920;12.050;2024-01-25T11:19:47;7.93;;;1.60;;
13122;SDS011;6627;50.920;12.050;2024-01-25T11:22:15;4.60;;;1.60;;
13122;SDS011;6627;50.920;12.050;2024-01-25T11:24:43;4.63;;;1.90;;
13122;SDS011;6627;50.920;12.050;2024-01-25T11:27:12;6.33;;;2.00;;
13122;SDS011;6627;50.920;12.050;2024-01-25T11:29:41;9.23;;;2.07;;
13122;SDS011;6627;50.920;12.050;2024-01-25T11:32:09;8.80;;;2.00;;
13122;SDS011;6627;50.920;12.050;2024-01-25T11:34:36;5.87;;;1.73;;
13122;SDS011;6627;50.920;12.050;2024-01-25T11:37:04;10.73;;;2.40;;
13122;SDS011;6627;50.920;12.050;2024-01-25T11:39:32;6.07;;;1.97;;
13122;SDS011;6627;50.920;12.050;2024-01-25T11:41:59;8.37;;;2.33;;
13122;SDS011;6627;50.920;12.050;2024-01-25T11:44:28;4.70;;;1.87;;
13122;SDS011;6627;50.920;12.050;2024-01-25T11:46:58;6.00;;;2.10;;
13122;SDS011;6627;50.920;12.050;2024-01-25T11:49:25;8.83;;;2.00;;
13122;SDS011;6627;50.920;12.050;2024-01-25T11:51:53;7.30;;;1.60;;
13122;SDS011;6627;50.920;12.050;2024-01-25T11:54:20;8.20;;;1.83;;
13122;SDS011;6627;50.920;12.050;2024-01-25T11:56:47;5.50;;;2.00;;
13122;SDS011;6627;50.920;12.050;2024-01-25T11:59:15;6.93;;;1.43;;
13122;SDS011;6627;50.920;12.050;2024-01-25T12:01:45;9.70;;;2.40;;
13122;SDS011;6627;50.920;12.050;2024-01-25T12:04:12;7.10;;;2.10;;
13122;SDS011;6627;50.920;12.050;2024-01-25T12:06:40;8.67;;;2.00;;
13122;SDS011;6627;50.920;12.050;2024-01-25T12:09:09;7.97;;;1.70;;
13122;SDS011;6627;50.920;12.050;2024-01-25T12:11:38;8.70;;;2.30;;
13122;SDS011;6627;50.920;12.050;2024-01-25T12:14:07;6.80;;;2.10;;
13122;SDS011;6627;50.920;12.050;2024-01-25T12:16:36;9.60;;;2.47;;
13122;SDS011;6627;50.920;12.050;2024-01-25T12:19:05;6.70;;;1.80;;
13122;SDS011;6627;50.920;12.050;2024-01-25T12:21:32;10.80;;;2.60;;
13122;SDS011;6627;50.920;12.050;2024-01-25T12:24:00;7.37;;;2.50;;
13122;SDS011;6627;50.920;12.050;2024-01-25T12:26:28;8.77;;;1.97;;
13122;SDS011;6627;50.920;12.050;2024-01-25T12:29:00;9.27;;;2.13;;
13122;SDS011;6627;50.920;12.050;2024-01-25T12:31:30;10.40;;;2.57;;
13122;SDS011;6627;50.920;12.050;2024-01-25T12:33:58;9.30;;;2.50;;
13122;SDS011;6627;50.920;12.050;2024-01-25T12:36:28;7.50;;;2.07;;
13122;SDS011;6627;50.920;12.050;2024-01-25T12:38:55;9.00;;;2.07;;
13122;SDS011;6627;50.920;12.050;2024-01-25T12:41:23;8.63;;;2.90;;
13122;SDS011;6627;50.920;12.050;2024-01-25T12:43:50;12.13;;;2.93;;
13122;SDS011;6627;50.920;12.050;2024-01-25T12:46:17;8.63;;;2.23;;
13122;SDS011;6627;50.920;12.050;2024-01-25T12:48:45;10.50;;;2.13;;
13122;SDS011;6627;50.920;12.050;2024-01-25T12:51:12;8.50;;;2.30;;
13122;SDS011;6627;50.920;12.050;2024-01-25T12:53:42;10.60;;;2.20;;
13122;SDS011;6627;50.920;12.050;2024-01-25T12:56:09;11.57;;;2.37;;
13122;SDS011;6627;50.920;12.050;2024-01-25T12:58:36;9.07;;;2.70;;
13122;SDS011;6627;50.920;12.050;2024-01-25T13:01:05;8.90;;;2.73;;
13122;SDS011;6627;50.920;12.050;2024-01-25T13:03:33;11.07;;;2.57;;
13122;SDS011;6627;50.920;12.050;2024-01-25T13:06:00;10.80;;;2.60;;
13122;SDS011;6627;50.920;12.050;2024-01-25T13:08:28;11.20;;;2.50;;
13122;SDS011;6627;50.920;12.050;2024-01-25T13:10:57;9.13;;;1.90;;
13122;SDS011;6627;50.920;12.050;2024-01-25T13:13:26;6.80;;;1.70;;
13122;SDS011;6627;50.920;12.050;2024-01-25T13:15:53;7.43;;;2.63;;
13122;SDS011;6627;50.920;12.050;2024-01-25T13:18:25;10.73;;;2.43;;
13122;SDS011;6627;50.920;12.050;2024-01-25T13:20:52;5.53;;;2.43;;
13122;SDS011;6627;50.920;12.050;2024-01-25T13:23:20;6.03;;;1.97;;
13122;SDS011;6627;50.920;12.050;2024-01-25T13:25:47;13.30;;;2.83;;
13122;SDS011;6627;50.920;12.050;2024-01-25T13:28:16;10.10;;;2.73;;
13122;SDS011;6627;50.920;12.050;2024-01-25T13:30:43;4.70;;;2.10;;
13122;SDS011;6627;50.920;12.050;2024-01-25T13:33:11;9.50;;;3.00;;
13122;SDS011;6627;50.920;12.050;2024-01-25T13:35:39;8.83;;;2.30;;
13122;SDS011;6627;50.920;12.050;2024-01-25T13:38:06;14.10;;;2.50;;
13122;SDS011;6627;50.920;12.050;2024-01-25T13:40:33;12.53;;;3.07;;
13122;SDS011;6627;50.920;12.050;2024-01-25T13:43:01;14.63;;;2.70;;
13122;SDS011;6627;50.920;12.050;2024-01-25T13:45:30;10.50;;;2.60;;
13122;SDS011;6627;50.920;12.050;2024-01-25T13:47:58;11.67;;;2.50;;
13122;SDS011;6627;50.920;12.050;2024-01-25T13:50:25;9.37;;;3.00;;
13122;SDS011;6627;50.920;12.050;2024-01-25T13:52:52;7.50;;;2.50;;
13122;SDS011;6627;50.920;12.050;2024-01-25T13:55:20;11.40;;;2.60;;
13122;SDS011;6627;50.920;12.050;2024-01-25T13:57:47;10.73;;;2.90;;
13122;SDS011;6627;50.920;12.050;2024-01-25T14:00:14;13.70;;;3.17;;
13122;SDS011;6627;50.920;12.050;2024-01-25T14:02:43;9.90;;;2.30;;
13122;SDS011;6627;50.920;12.050;2024-01-25T14:05:12;7.87;;;2.43;;
13122;SDS011;6627;50.920;12.050;2024-01-25T14:07:39;7.53;;;1.90;;
13122;SDS011;6627;50.920;12.050;2024-01-25T14:10:08;9.70;;;2.30;;
13122;SDS011;6627;50.920;12.050;2024-01-25T14:12:36;9.33;;;3.20;;
13122;SDS011;6627;50.920;12.050;2024-01-25T14:15:03;10.03;;;3.00;;
13122;SDS011;6627;50.920;12.050;2024-01-25T14:17:31;9.87;;;3.13;;
13122;SDS011;6627;50.920;12.050;2024-01-25T14:20:02;8.13;;;3.13;;
13122;SDS011;6627;50.920;12.050;2024-01-25T14:22:30;9.27;;;2.63;;
13122;SDS011;6627;50.920;12.050;2024-01-25T14:24:57;10.80;;;4.10;;
13122;SDS011;6627;50.920;12.050;2024-01-25T14:27:26;12.33;;;2.80;;
13122;SDS011;6627;50.920;12.050;2024-01-25T14:29:53;8.53;;;2.60;;
13122;SDS011;6627;50.920;12.050;2024-01-25T14:32:20;6.60;;;2.33;;
13122;SDS011;6627;50.920;12.050;2024-01-25T14:34:48;9.27;;;2.13;;
13122;SDS011;6627;50.920;12.050;2024-01-25T14:37:18;8.83;;;2.67;;
13122;SDS011;6627;50.920;12.050;2024-01-25T14:39:45;10.93;;;2.60;;
13122;SDS011;6627;50.920;12.050;2024-01-25T14:42:13;7.67;;;2.77;;
13122;SDS011;6627;50.920;12.050;2024-01-25T14:44:42;11.73;;;2.70;;